sensor_id;sensor_type;location;lat;lon;timestamp;temperature;humidity
85036;DHT22;75357;49.780;9.448;2024-02-21T00:01:27;9.10;74.70
85036;DHT22;75357;49.780;9.448;2024-02-21T00:03:57;9.10;74.70
85036;DHT22;75357;49.780;9.448;2024-02-21T00:06:27;9.00;74.80
85036;DHT22;75357;49.780;9.448;2024-02-21T00:08:56;9.00;75.00
85036;DHT22;75357;49.780;9.448;2024-02-21T00:11:25;8.90;75.20
85036;DHT22;75357;49.780;9.448;2024-02-21T00:13:53;8.90;75.20
85036;DHT22;75357;49.780;9.448;2024-02-21T00:16:23;8.90;75.40
85036;DHT22;75357;49.780;9.448;2024-02-21T00:18:51;8.90;75.30
85036;DHT22;75357;49.780;9.448;2024-02-21T00:21:20;8.90;75.40
85036;DHT22;75357;49.780;9.448;2024-02-21T00:23:53;9.00;74.70
85036;DHT22;75357;49.780;9.448;2024-02-21T00:26:21;8.90;74.80
85036;DHT22;75357;49.780;9.448;2024-02-21T00:28:50;9.00;74.90
85036;DHT22;75357;49.780;9.448;2024-02-21T00:31:19;8.90;74.70
85036;DHT22;75357;49.780;9.448;2024-02-21T00:33:49;9.00;74.80
85036;DHT22;75357;49.780;9.448;2024-02-21T00:36:18;9.00;75.00
85036;DHT22;75357;49.780;9.448;2024-02-21T00:38:46;9.00;74.80
85036;DHT22;75357;49.780;9.448;2024-02-21T00:41:16;9.00;74.80
85036;DHT22;75357;49.780;9.448;2024-02-21T00:43:45;9.00;74.40
85036;DHT22;75357;49.780;9.448;2024-02-21T00:46:16;9.00;74.40
85036;DHT22;75357;49.780;9.448;2024-02-21T00:48:44;9.00;74.50
85036;DHT22;75357;49.780;9.448;2024-02-21T00:51:13;9.10;74.00
85036;DHT22;75357;49.780;9.448;2024-02-21T00:53:42;9.10;73.50
85036;DHT22;75357;49.780;9.448;2024-02-21T00:56:12;9.20;74.00
85036;DHT22;75357;49.780;9.448;2024-02-21T00:58:42;9.20;73.60
85036;DHT22;75357;49.780;9.448;2024-02-21T01:01:11;9.10;73.70
85036;DHT22;75357;49.780;9.448;2024-02-21T01:03:41;9.10;73.30
85036;DHT22;75357;49.780;9.448;2024-02-21T01:06:10;9.20;73.70
85036;DHT22;75357;49.780;9.448;2024-02-21T01:08:39;9.20;73.50
85036;DHT22;75357;49.780;9.448;2024-02-21T01:11:08;9.20;73.00
85036;DHT22;75357;49.780;9.448;2024-02-21T01:13:37;9.20;73.10
85036;DHT22;75357;49.780;9.448;2024-02-21T01:16:07;9.20;73.20
85036;DHT22;75357;49.780;9.448;2024-02-21T01:18:37;9.20;73.80
85036;DHT22;75357;49.780;9.448;2024-02-21T01:21:07;9.20;74.10
85036;DHT22;75357;49.780;9.448;2024-02-21T01:23:37;9.20;74.70
85036;DHT22;75357;49.780;9.448;2024-02-21T01:26:06;9.20;75.00
85036;DHT22;75357;49.780;9.448;2024-02-21T01:28:35;9.10;75.30
85036;DHT22;75357;49.780;9.448;2024-02-21T01:31:05;9.00;76.80
85036;DHT22;75357;49.780;9.448;2024-02-21T01:33:35;9.00;76.10
85036;DHT22;75357;49.780;9.448;2024-02-21T01:36:06;8.90;78.00
85036;DHT22;75357;49.780;9.448;2024-02-21T01:38:35;8.90;79.00
85036;DHT22;75357;49.780;9.448;2024-02-21T01:41:05;8.90;79.20
85036;DHT22;75357;49.780;9.448;2024-02-21T01:43:34;8.90;79.40
85036;DHT22;75357;49.780;9.448;2024-02-21T01:46:03;8.90;79.00
85036;DHT22;75357;49.780;9.448;2024-02-21T01:48:32;8.90;79.50
85036;DHT22;75357;49.780;9.448;2024-02-21T01:51:05;8.90;79.50
85036;DHT22;75357;49.780;9.448;2024-02-21T01:53:36;8.90;79.50
85036;DHT22;75357;49.780;9.448;2024-02-21T01:56:06;8.90;78.80
85036;DHT22;75357;49.780;9.448;2024-02-21T01:58:37;8.80;79.40
85036;DHT22;75357;49.780;9.448;2024-02-21T02:01:07;8.80;79.10
85036;DHT22;75357;49.780;9.448;2024-02-21T02:03:35;8.80;79.30
85036;DHT22;75357;49.780;9.448;2024-02-21T02:06:07;8.70;79.80
85036;DHT22;75357;49.780;9.448;2024-02-21T02:08:35;8.70;80.30
85036;DHT22;75357;49.780;9.448;2024-02-21T02:11:05;8.60;80.70
85036;DHT22;75357;49.780;9.448;2024-02-21T02:13:35;8.60;80.90
85036;DHT22;75357;49.780;9.448;2024-02-21T02:16:05;8.60;81.30
85036;DHT22;75357;49.780;9.448;2024-02-21T02:18:35;8.60;81.80
85036;DHT22;75357;49.780;9.448;2024-02-21T02:21:08;8.50;82.20
85036;DHT22;75357;49.780;9.448;2024-02-21T02:23:42;8.50;82.70
85036;DHT22;75357;49.780;9.448;2024-02-21T02:26:10;8.50;83.10
85036;DHT22;75357;49.780;9.448;2024-02-21T02:28:39;8.40;83.80
85036;DHT22;75357;49.780;9.448;2024-02-21T02:31:07;8.30;84.00
85036;DHT22;75357;49.780;9.448;2024-02-21T02:33:36;8.20;84.20
85036;DHT22;75357;49.780;9.448;2024-02-21T02:36:05;8.20;84.60
85036;DHT22;75357;49.780;9.448;2024-02-21T02:38:33;8.10;85.10
85036;DHT22;75357;49.780;9.448;2024-02-21T02:41:03;8.10;85.70
85036;DHT22;75357;49.780;9.448;2024-02-21T02:43:32;7.90;86.50
85036;DHT22;75357;49.780;9.448;2024-02-21T02:46:00;7.80;86.70
85036;DHT22;75357;49.780;9.448;2024-02-21T02:48:28;7.80;87.00
85036;DHT22;75357;49.780;9.448;2024-02-21T02:50:57;7.70;87.50
85036;DHT22;75357;49.780;9.448;2024-02-21T02:53:25;7.70;87.70
85036;DHT22;75357;49.780;9.448;2024-02-21T02:55:54;7.70;88.20
85036;DHT22;75357;49.780;9.448;2024-02-21T02:58:24;7.70;87.60
85036;DHT22;75357;49.780;9.448;2024-02-21T03:00:52;7.80;87.40
85036;DHT22;75357;49.780;9.448;2024-02-21T03:03:21;7.70;87.30
85036;DHT22;75357;49.780;9.448;2024-02-21T03:05:49;7.70;87.40
85036;DHT22;75357;49.780;9.448;2024-02-21T03:08:17;7.70;87.30
85036;DHT22;75357;49.780;9.448;2024-02-21T03:10:46;7.60;87.40
85036;DHT22;75357;49.780;9.448;2024-02-21T03:13:15;7.60;87.80
85036;DHT22;75357;49.780;9.448;2024-02-21T03:15:45;7.50;87.80
85036;DHT22;75357;49.780;9.448;2024-02-21T03:18:13;7.50;87.90
85036;DHT22;75357;49.780;9.448;2024-02-21T03:20:42;7.60;87.90
85036;DHT22;75357;49.780;9.448;2024-02-21T03:23:10;7.60;87.90
85036;DHT22;75357;49.780;9.448;2024-02-21T03:25:38;7.60;87.80
85036;DHT22;75357;49.780;9.448;2024-02-21T03:28:07;7.60;87.80
85036;DHT22;75357;49.780;9.448;2024-02-21T03:30:35;7.60;87.50
85036;DHT22;75357;49.780;9.448;2024-02-21T03:33:05;7.60;87.50
85036;DHT22;75357;49.780;9.448;2024-02-21T03:35:34;7.60;87.30
85036;DHT22;75357;49.780;9.448;2024-02-21T03:38:02;7.50;87.60
85036;DHT22;75357;49.780;9.448;2024-02-21T03:40:31;7.40;88.00
85036;DHT22;75357;49.780;9.448;2024-02-21T03:42:59;7.40;88.20
85036;DHT22;75357;49.780;9.448;2024-02-21T03:45:31;7.30;88.10
85036;DHT22;75357;49.780;9.448;2024-02-21T03:47:59;7.30;88.00
85036;DHT22;75357;49.780;9.448;2024-02-21T03:50:30;7.20;88.10
85036;DHT22;75357;49.780;9.448;2024-02-21T03:52:58;7.10;88.40
85036;DHT22;75357;49.780;9.448;2024-02-21T03:55:27;7.10;88.60
85036;DHT22;75357;49.780;9.448;2024-02-21T03:57:55;7.00;88.60
85036;DHT22;75357;49.780;9.448;2024-02-21T04:00:24;7.00;88.80
85036;DHT22;75357;49.780;9.448;2024-02-21T04:02:52;7.00;88.90
85036;DHT22;75357;49.780;9.448;2024-02-21T04:05:20;7.00;88.90
85036;DHT22;75357;49.780;9.448;2024-02-21T04:07:50;6.90;88.90
85036;DHT22;75357;49.780;9.448;2024-02-21T04:10:19;6.80;88.80
85036;DHT22;75357;49.780;9.448;2024-02-21T04:12:48;6.70;89.30
85036;DHT22;75357;49.780;9.448;2024-02-21T04:15:18;6.70;89.20
85036;DHT22;75357;49.780;9.448;2024-02-21T04:17:49;6.60;89.50
85036;DHT22;75357;49.780;9.448;2024-02-21T04:20:21;6.50;89.60
85036;DHT22;75357;49.780;9.448;2024-02-21T04:22:52;6.50;90.00
85036;DHT22;75357;49.780;9.448;2024-02-21T04:25:22;6.50;90.10
85036;DHT22;75357;49.780;9.448;2024-02-21T04:27:51;6.40;90.10
85036;DHT22;75357;49.780;9.448;2024-02-21T04:30:20;6.50;90.20
85036;DHT22;75357;49.780;9.448;2024-02-21T04:32:49;6.50;90.10
85036;DHT22;75357;49.780;9.448;2024-02-21T04:35:18;6.50;90.20
85036;DHT22;75357;49.780;9.448;2024-02-21T04:37:47;6.50;90.20
85036;DHT22;75357;49.780;9.448;2024-02-21T04:40:17;6.50;90.40
85036;DHT22;75357;49.780;9.448;2024-02-21T04:42:46;6.50;90.40
85036;DHT22;75357;49.780;9.448;2024-02-21T04:45:15;6.50;90.50
85036;DHT22;75357;49.780;9.448;2024-02-21T04:47:43;6.60;90.50
85036;DHT22;75357;49.780;9.448;2024-02-21T04:50:12;6.60;90.30
85036;DHT22;75357;49.780;9.448;2024-02-21T04:52:41;6.60;90.40
85036;DHT22;75357;49.780;9.448;2024-02-21T04:55:09;6.70;90.20
85036;DHT22;75357;49.780;9.448;2024-02-21T04:57:42;6.80;90.30
85036;DHT22;75357;49.780;9.448;2024-02-21T05:00:11;6.80;89.80
85036;DHT22;75357;49.780;9.448;2024-02-21T05:02:39;6.80;89.40
85036;DHT22;75357;49.780;9.448;2024-02-21T05:05:09;6.90;89.10
85036;DHT22;75357;49.780;9.448;2024-02-21T05:07:38;6.90;89.00
85036;DHT22;75357;49.780;9.448;2024-02-21T05:10:08;6.80;88.90
85036;DHT22;75357;49.780;9.448;2024-02-21T05:12:36;6.80;88.80
85036;DHT22;75357;49.780;9.448;2024-02-21T05:15:07;6.80;88.80
85036;DHT22;75357;49.780;9.448;2024-02-21T05:17:36;6.80;88.60
85036;DHT22;75357;49.780;9.448;2024-02-21T05:20:06;6.90;88.50
85036;DHT22;75357;49.780;9.448;2024-02-21T05:22:34;6.80;88.00
85036;DHT22;75357;49.780;9.448;2024-02-21T05:25:03;6.80;88.30
85036;DHT22;75357;49.780;9.448;2024-02-21T05:27:31;6.60;88.50
85036;DHT22;75357;49.780;9.448;2024-02-21T05:30:03;6.60;88.80
85036;DHT22;75357;49.780;9.448;2024-02-21T05:32:35;6.50;89.60
85036;DHT22;75357;49.780;9.448;2024-02-21T05:35:03;6.40;89.40
85036;DHT22;75357;49.780;9.448;2024-02-21T05:37:32;6.30;89.40
85036;DHT22;75357;49.780;9.448;2024-02-21T05:40:00;6.20;89.60
85036;DHT22;75357;49.780;9.448;2024-02-21T05:42:29;6.10;89.80
85036;DHT22;75357;49.780;9.448;2024-02-21T05:44:57;6.10;89.90
85036;DHT22;75357;49.780;9.448;2024-02-21T05:47:26;6.10;90.10
85036;DHT22;75357;49.780;9.448;2024-02-21T05:50:01;6.00;90.30
85036;DHT22;75357;49.780;9.448;2024-02-21T05:52:29;5.90;90.60
85036;DHT22;75357;49.780;9.448;2024-02-21T05:54:58;5.80;90.60
85036;DHT22;75357;49.780;9.448;2024-02-21T05:57:26;5.80;90.50
85036;DHT22;75357;49.780;9.448;2024-02-21T05:59:55;5.70;90.60
85036;DHT22;75357;49.780;9.448;2024-02-21T06:02:24;5.70;90.80
85036;DHT22;75357;49.780;9.448;2024-02-21T06:04:52;5.70;90.90
85036;DHT22;75357;49.780;9.448;2024-02-21T06:07:22;5.70;90.80
85036;DHT22;75357;49.780;9.448;2024-02-21T06:09:51;5.70;90.50
85036;DHT22;75357;49.780;9.448;2024-02-21T06:12:20;5.70;90.40
85036;DHT22;75357;49.780;9.448;2024-02-21T06:14:48;5.60;90.40
85036;DHT22;75357;49.780;9.448;2024-02-21T06:17:16;5.60;90.50
85036;DHT22;75357;49.780;9.448;2024-02-21T06:19:45;5.60;90.40
85036;DHT22;75357;49.780;9.448;2024-02-21T06:22:16;5.50;90.30
85036;DHT22;75357;49.780;9.448;2024-02-21T06:24:45;5.50;90.40
85036;DHT22;75357;49.780;9.448;2024-02-21T06:27:14;5.40;90.70
85036;DHT22;75357;49.780;9.448;2024-02-21T06:29:43;5.30;90.40
85036;DHT22;75357;49.780;9.448;2024-02-21T06:32:11;5.40;90.20
85036;DHT22;75357;49.780;9.448;2024-02-21T06:34:40;5.30;90.10
85036;DHT22;75357;49.780;9.448;2024-02-21T06:37:08;5.30;90.10
85036;DHT22;75357;49.780;9.448;2024-02-21T06:39:37;5.20;90.20
85036;DHT22;75357;49.780;9.448;2024-02-21T06:42:09;5.20;90.20
85036;DHT22;75357;49.780;9.448;2024-02-21T06:44:38;5.20;90.30
85036;DHT22;75357;49.780;9.448;2024-02-21T06:47:07;5.30;90.20
85036;DHT22;75357;49.780;9.448;2024-02-21T06:49:35;5.30;90.00
85036;DHT22;75357;49.780;9.448;2024-02-21T06:52:06;5.30;89.80
85036;DHT22;75357;49.780;9.448;2024-02-21T06:54:34;5.40;89.90
85036;DHT22;75357;49.780;9.448;2024-02-21T06:57:03;5.40;89.60
85036;DHT22;75357;49.780;9.448;2024-02-21T06:59:33;5.40;89.40
85036;DHT22;75357;49.780;9.448;2024-02-21T07:02:02;5.40;89.50
85036;DHT22;75357;49.780;9.448;2024-02-21T07:04:33;5.50;90.00
85036;DHT22;75357;49.780;9.448;2024-02-21T07:07:02;5.60;89.70
85036;DHT22;75357;49.780;9.448;2024-02-21T07:09:31;5.60;89.20
85036;DHT22;75357;49.780;9.448;2024-02-21T07:11:59;5.70;89.20
85036;DHT22;75357;49.780;9.448;2024-02-21T07:14:28;5.70;89.00
85036;DHT22;75357;49.780;9.448;2024-02-21T07:16:58;5.80;88.80
85036;DHT22;75357;49.780;9.448;2024-02-21T07:19:29;5.90;89.00
85036;DHT22;75357;49.780;9.448;2024-02-21T07:21:57;6.00;88.60
85036;DHT22;75357;49.780;9.448;2024-02-21T07:24:26;6.10;88.20
85036;DHT22;75357;49.780;9.448;2024-02-21T07:26:54;6.20;88.00
85036;DHT22;75357;49.780;9.448;2024-02-21T07:29:23;6.20;88.00
85036;DHT22;75357;49.780;9.448;2024-02-21T07:31:51;6.30;87.90
85036;DHT22;75357;49.780;9.448;2024-02-21T07:34:21;6.40;87.60
85036;DHT22;75357;49.780;9.448;2024-02-21T07:36:50;6.60;87.00
85036;DHT22;75357;49.780;9.448;2024-02-21T07:39:18;6.70;86.30
85036;DHT22;75357;49.780;9.448;2024-02-21T07:41:47;6.70;85.90
85036;DHT22;75357;49.780;9.448;2024-02-21T07:44:16;6.80;85.80
85036;DHT22;75357;49.780;9.448;2024-02-21T07:46:47;6.90;86.10
85036;DHT22;75357;49.780;9.448;2024-02-21T07:49:15;7.00;86.00
85036;DHT22;75357;49.780;9.448;2024-02-21T07:51:45;7.20;85.80
85036;DHT22;75357;49.780;9.448;2024-02-21T07:54:14;7.10;85.40
85036;DHT22;75357;49.780;9.448;2024-02-21T07:56:44;7.30;85.80
85036;DHT22;75357;49.780;9.448;2024-02-21T07:59:12;7.50;85.00
85036;DHT22;75357;49.780;9.448;2024-02-21T08:01:43;7.60;84.70
85036;DHT22;75357;49.780;9.448;2024-02-21T08:04:13;7.80;84.60
85036;DHT22;75357;49.780;9.448;2024-02-21T08:06:43;7.90;84.10
85036;DHT22;75357;49.780;9.448;2024-02-21T08:09:13;8.00;83.60
85036;DHT22;75357;49.780;9.448;2024-02-21T08:11:41;7.80;83.60
85036;DHT22;75357;49.780;9.448;2024-02-21T08:14:10;7.80;84.10
85036;DHT22;75357;49.780;9.448;2024-02-21T08:16:38;8.00;83.60
85036;DHT22;75357;49.780;9.448;2024-02-21T08:19:06;8.10;83.40
85036;DHT22;75357;49.780;9.448;2024-02-21T08:21:34;8.30;83.10
85036;DHT22;75357;49.780;9.448;2024-02-21T08:24:04;8.40;82.50
85036;DHT22;75357;49.780;9.448;2024-02-21T08:26:34;8.50;82.50
85036;DHT22;75357;49.780;9.448;2024-02-21T08:29:03;8.60;82.00
85036;DHT22;75357;49.780;9.448;2024-02-21T08:31:31;8.70;82.90
85036;DHT22;75357;49.780;9.448;2024-02-21T08:34:01;8.90;82.00
85036;DHT22;75357;49.780;9.448;2024-02-21T08:36:31;8.70;81.90
85036;DHT22;75357;49.780;9.448;2024-02-21T08:39:00;8.70;81.50
85036;DHT22;75357;49.780;9.448;2024-02-21T08:41:31;8.70;81.50
85036;DHT22;75357;49.780;9.448;2024-02-21T08:44:23;8.80;81.50
85036;DHT22;75357;49.780;9.448;2024-02-21T08:46:53;9.00;79.80
85036;DHT22;75357;49.780;9.448;2024-02-21T08:49:22;9.20;80.00
85036;DHT22;75357;49.780;9.448;2024-02-21T08:52:00;9.20;78.30
85036;DHT22;75357;49.780;9.448;2024-02-21T08:54:29;9.30;79.30
85036;DHT22;75357;49.780;9.448;2024-02-21T08:56:57;9.50;78.40
85036;DHT22;75357;49.780;9.448;2024-02-21T08:59:28;9.60;77.60
85036;DHT22;75357;49.780;9.448;2024-02-21T09:01:56;9.60;77.80
85036;DHT22;75357;49.780;9.448;2024-02-21T09:04:25;9.60;77.40
85036;DHT22;75357;49.780;9.448;2024-02-21T09:06:53;9.60;77.70
85036;DHT22;75357;49.780;9.448;2024-02-21T09:09:22;9.70;76.50
85036;DHT22;75357;49.780;9.448;2024-02-21T09:11:54;9.60;75.30
85036;DHT22;75357;49.780;9.448;2024-02-21T09:14:22;9.60;74.90
85036;DHT22;75357;49.780;9.448;2024-02-21T09:16:52;9.50;75.10
85036;DHT22;75357;49.780;9.448;2024-02-21T09:19:23;9.60;74.70
85036;DHT22;75357;49.780;9.448;2024-02-21T09:21:51;9.50;74.40
85036;DHT22;75357;49.780;9.448;2024-02-21T09:24:20;9.50;74.70
85036;DHT22;75357;49.780;9.448;2024-02-21T09:26:48;9.50;74.90
85036;DHT22;75357;49.780;9.448;2024-02-21T09:29:16;9.50;74.40
85036;DHT22;75357;49.780;9.448;2024-02-21T09:31:47;9.60;74.00
85036;DHT22;75357;49.780;9.448;2024-02-21T09:34:17;9.70;73.80
85036;DHT22;75357;49.780;9.448;2024-02-21T09:36:45;9.80;73.60
85036;DHT22;75357;49.780;9.448;2024-02-21T09:39:17;9.90;74.10
85036;DHT22;75357;49.780;9.448;2024-02-21T09:41:50;10.00;72.00
85036;DHT22;75357;49.780;9.448;2024-02-21T09:44:22;10.00;72.30
85036;DHT22;75357;49.780;9.448;2024-02-21T09:46:55;10.00;71.70
85036;DHT22;75357;49.780;9.448;2024-02-21T09:49:30;10.30;71.00
85036;DHT22;75357;49.780;9.448;2024-02-21T09:52:02;10.50;70.90
85036;DHT22;75357;49.780;9.448;2024-02-21T09:54:32;10.40;70.20
85036;DHT22;75357;49.780;9.448;2024-02-21T09:57:01;10.50;70.30
85036;DHT22;75357;49.780;9.448;2024-02-21T09:59:32;10.30;70.70
85036;DHT22;75357;49.780;9.448;2024-02-21T10:02:01;10.40;70.50
85036;DHT22;75357;49.780;9.448;2024-02-21T10:04:34;10.70;70.30
85036;DHT22;75357;49.780;9.448;2024-02-21T10:07:03;10.80;70.00
85036;DHT22;75357;49.780;9.448;2024-02-21T10:09:32;10.80;69.60
85036;DHT22;75357;49.780;9.448;2024-02-21T10:12:08;10.80;69.30
85036;DHT22;75357;49.780;9.448;2024-02-21T10:14:37;10.70;69.20
85036;DHT22;75357;49.780;9.448;2024-02-21T10:17:06;10.70;69.00
85036;DHT22;75357;49.780;9.448;2024-02-21T10:19:39;10.80;68.80
85036;DHT22;75357;49.780;9.448;2024-02-21T10:22:08;10.60;67.70
85036;DHT22;75357;49.780;9.448;2024-02-21T10:24:37;10.50;68.30
85036;DHT22;75357;49.780;9.448;2024-02-21T10:27:09;10.60;68.00
85036;DHT22;75357;49.780;9.448;2024-02-21T10:29:39;10.70;67.70
85036;DHT22;75357;49.780;9.448;2024-02-21T10:32:09;10.90;67.60
85036;DHT22;75357;49.780;9.448;2024-02-21T10:34:41;11.10;67.20
85036;DHT22;75357;49.780;9.448;2024-02-21T10:37:11;11.20;66.60
85036;DHT22;75357;49.780;9.448;2024-02-21T10:39:41;11.20;66.10
85036;DHT22;75357;49.780;9.448;2024-02-21T10:42:11;11.40;67.30
85036;DHT22;75357;49.780;9.448;2024-02-21T10:44:41;11.60;64.30
85036;DHT22;75357;49.780;9.448;2024-02-21T10:47:11;11.70;65.10
85036;DHT22;75357;49.780;9.448;2024-02-21T10:49:44;11.80;64.60
85036;DHT22;75357;49.780;9.448;2024-02-21T10:52:19;11.70;63.30
85036;DHT22;75357;49.780;9.448;2024-02-21T10:54:55;11.60;63.90
85036;DHT22;75357;49.780;9.448;2024-02-21T10:57:25;11.60;64.20
85036;DHT22;75357;49.780;9.448;2024-02-21T10:59:55;11.70;63.40
85036;DHT22;75357;49.780;9.448;2024-02-21T11:02:23;11.90;62.60
85036;DHT22;75357;49.780;9.448;2024-02-21T11:04:55;12.30;63.50
85036;DHT22;75357;49.780;9.448;2024-02-21T11:07:24;12.30;61.60
85036;DHT22;75357;49.780;9.448;2024-02-21T11:09:53;12.30;62.40
85036;DHT22;75357;49.780;9.448;2024-02-21T11:12:23;12.40;61.00
85036;DHT22;75357;49.780;9.448;2024-02-21T11:14:52;12.70;60.60
85036;DHT22;75357;49.780;9.448;2024-02-21T11:17:21;12.90;60.80
85036;DHT22;75357;49.780;9.448;2024-02-21T11:19:54;13.30;60.70
85036;DHT22;75357;49.780;9.448;2024-02-21T11:22:23;13.40;58.20
85036;DHT22;75357;49.780;9.448;2024-02-21T11:25:06;13.20;59.40
85036;DHT22;75357;49.780;9.448;2024-02-21T11:27:36;13.40;57.80
85036;DHT22;75357;49.780;9.448;2024-02-21T11:30:06;13.20;57.50
85036;DHT22;75357;49.780;9.448;2024-02-21T11:32:35;13.00;57.30
85036;DHT22;75357;49.780;9.448;2024-02-21T11:35:06;12.80;56.80
85036;DHT22;75357;49.780;9.448;2024-02-21T11:37:36;12.30;58.40
85036;DHT22;75357;49.780;9.448;2024-02-21T11:40:05;12.30;58.50
85036;DHT22;75357;49.780;9.448;2024-02-21T11:42:39;12.60;58.10
85036;DHT22;75357;49.780;9.448;2024-02-21T11:45:08;12.60;58.30
85036;DHT22;75357;49.780;9.448;2024-02-21T11:47:37;12.80;58.60
85036;DHT22;75357;49.780;9.448;2024-02-21T11:50:11;13.10;57.20
85036;DHT22;75357;49.780;9.448;2024-02-21T11:52:43;13.00;57.30
85036;DHT22;75357;49.780;9.448;2024-02-21T11:55:12;12.90;57.90
85036;DHT22;75357;49.780;9.448;2024-02-21T11:57:42;13.10;57.20
85036;DHT22;75357;49.780;9.448;2024-02-21T12:00:15;12.60;56.70
85036;DHT22;75357;49.780;9.448;2024-02-21T12:02:45;12.70;57.70
85036;DHT22;75357;49.780;9.448;2024-02-21T12:05:15;12.50;57.80
85036;DHT22;75357;49.780;9.448;2024-02-21T12:07:44;12.50;58.30
85036;DHT22;75357;49.780;9.448;2024-02-21T12:10:16;12.70;58.30
85036;DHT22;75357;49.780;9.448;2024-02-21T12:12:44;12.60;57.50
85036;DHT22;75357;49.780;9.448;2024-02-21T12:15:12;12.60;57.00
85036;DHT22;75357;49.780;9.448;2024-02-21T12:17:41;12.50;58.10
85036;DHT22;75357;49.780;9.448;2024-02-21T12:20:10;12.70;57.40
85036;DHT22;75357;49.780;9.448;2024-02-21T12:22:41;12.70;57.00
85036;DHT22;75357;49.780;9.448;2024-02-21T12:25:16;12.60;55.90
85036;DHT22;75357;49.780;9.448;2024-02-21T12:27:46;12.60;56.40
85036;DHT22;75357;49.780;9.448;2024-02-21T12:30:16;12.80;55.50
85036;DHT22;75357;49.780;9.448;2024-02-21T12:32:45;12.70;55.30
85036;DHT22;75357;49.780;9.448;2024-02-21T12:35:13;12.80;55.60
85036;DHT22;75357;49.780;9.448;2024-02-21T12:37:43;12.90;55.60
85036;DHT22;75357;49.780;9.448;2024-02-21T12:40:12;13.10;55.30
85036;DHT22;75357;49.780;9.448;2024-02-21T12:42:42;12.90;54.40
85036;DHT22;75357;49.780;9.448;2024-02-21T12:45:10;12.90;55.20
85036;DHT22;75357;49.780;9.448;2024-02-21T12:47:40;12.90;54.60
85036;DHT22;75357;49.780;9.448;2024-02-21T12:50:09;13.00;54.70
85036;DHT22;75357;49.780;9.448;2024-02-21T12:52:37;13.10;54.20
85036;DHT22;75357;49.780;9.448;2024-02-21T12:55:08;12.90;54.10
85036;DHT22;75357;49.780;9.448;2024-02-21T12:57:38;12.90;54.90
85036;DHT22;75357;49.780;9.448;2024-02-21T13:00:10;12.80;54.80
85036;DHT22;75357;49.780;9.448;2024-02-21T13:02:39;13.00;54.70
85036;DHT22;75357;49.780;9.448;2024-02-21T13:05:08;13.20;55.40
85036;DHT22;75357;49.780;9.448;2024-02-21T13:07:36;13.50;56.20
85036;DHT22;75357;49.780;9.448;2024-02-21T13:10:08;13.40;57.00
85036;DHT22;75357;49.780;9.448;2024-02-21T13:12:38;13.80;57.40
85036;DHT22;75357;49.780;9.448;2024-02-21T13:15:08;14.10;56.80
85036;DHT22;75357;49.780;9.448;2024-02-21T13:17:39;14.40;55.50
85036;DHT22;75357;49.780;9.448;2024-02-21T13:20:08;14.40;54.80
85036;DHT22;75357;49.780;9.448;2024-02-21T13:22:38;14.50;55.10
85036;DHT22;75357;49.780;9.448;2024-02-21T13:25:08;14.60;53.50
85036;DHT22;75357;49.780;9.448;2024-02-21T13:27:39;14.50;55.00
85036;DHT22;75357;49.780;9.448;2024-02-21T13:30:09;14.40;53.50
85036;DHT22;75357;49.780;9.448;2024-02-21T13:32:37;14.10;54.40
85036;DHT22;75357;49.780;9.448;2024-02-21T13:35:06;14.10;55.20
85036;DHT22;75357;49.780;9.448;2024-02-21T13:37:36;13.80;53.60
85036;DHT22;75357;49.780;9.448;2024-02-21T13:40:14;13.70;55.80
85036;DHT22;75357;49.780;9.448;2024-02-21T13:42:43;13.90;55.00
85036;DHT22;75357;49.780;9.448;2024-02-21T13:45:11;14.00;55.30
85036;DHT22;75357;49.780;9.448;2024-02-21T13:47:40;14.10;54.60
85036;DHT22;75357;49.780;9.448;2024-02-21T13:50:08;14.10;55.20
85036;DHT22;75357;49.780;9.448;2024-02-21T13:52:38;14.10;54.50
85036;DHT22;75357;49.780;9.448;2024-02-21T13:55:09;13.90;54.30
85036;DHT22;75357;49.780;9.448;2024-02-21T13:57:40;13.50;54.90
85036;DHT22;75357;49.780;9.448;2024-02-21T14:00:09;13.30;55.90
85036;DHT22;75357;49.780;9.448;2024-02-21T14:02:38;13.20;56.10
85036;DHT22;75357;49.780;9.448;2024-02-21T14:05:07;13.30;56.40
85036;DHT22;75357;49.780;9.448;2024-02-21T14:07:36;13.50;55.80
85036;DHT22;75357;49.780;9.448;2024-02-21T14:10:06;13.50;55.60
85036;DHT22;75357;49.780;9.448;2024-02-21T14:12:36;13.60;55.50
85036;DHT22;75357;49.780;9.448;2024-02-21T14:15:09;13.80;55.10
85036;DHT22;75357;49.780;9.448;2024-02-21T14:17:37;13.80;54.00
85036;DHT22;75357;49.780;9.448;2024-02-21T14:20:07;13.80;54.40
85036;DHT22;75357;49.780;9.448;2024-02-21T14:22:37;13.90;54.50
85036;DHT22;75357;49.780;9.448;2024-02-21T14:25:07;13.90;54.40
85036;DHT22;75357;49.780;9.448;2024-02-21T14:27:35;14.00;53.70
85036;DHT22;75357;49.780;9.448;2024-02-21T14:30:05;14.00;53.60
85036;DHT22;75357;49.780;9.448;2024-02-21T14:32:35;14.00;53.80
85036;DHT22;75357;49.780;9.448;2024-02-21T14:35:03;14.00;54.10
85036;DHT22;75357;49.780;9.448;2024-02-21T14:37:33;14.10;53.60
85036;DHT22;75357;49.780;9.448;2024-02-21T14:40:01;14.00;53.70
85036;DHT22;75357;49.780;9.448;2024-02-21T14:42:30;14.00;53.80
85036;DHT22;75357;49.780;9.448;2024-02-21T14:44:59;13.90;53.80
85036;DHT22;75357;49.780;9.448;2024-02-21T14:47:32;13.90;53.40
85036;DHT22;75357;49.780;9.448;2024-02-21T14:50:02;13.90;53.10
85036;DHT22;75357;49.780;9.448;2024-02-21T14:52:32;13.80;53.10
85036;DHT22;75357;49.780;9.448;2024-02-21T14:55:03;13.90;52.90
85036;DHT22;75357;49.780;9.448;2024-02-21T14:57:32;13.80;52.40
85036;DHT22;75357;49.780;9.448;2024-02-21T15:00:00;13.80;52.40
85036;DHT22;75357;49.780;9.448;2024-02-21T15:02:34;13.70;52.10
85036;DHT22;75357;49.780;9.448;2024-02-21T15:05:05;13.50;52.70
85036;DHT22;75357;49.780;9.448;2024-02-21T15:07:34;13.40;52.60
85036;DHT22;75357;49.780;9.448;2024-02-21T15:10:02;13.10;52.60
85036;DHT22;75357;49.780;9.448;2024-02-21T15:12:31;13.10;53.10
85036;DHT22;75357;49.780;9.448;2024-02-21T15:14:59;12.90;52.70
85036;DHT22;75357;49.780;9.448;2024-02-21T15:17:27;13.00;53.30
85036;DHT22;75357;49.780;9.448;2024-02-21T15:19:56;13.10;53.20
85036;DHT22;75357;49.780;9.448;2024-02-21T15:22:28;13.20;53.30
85036;DHT22;75357;49.780;9.448;2024-02-21T15:24:57;13.20;53.00
85036;DHT22;75357;49.780;9.448;2024-02-21T15:27:27;13.10;53.00
85036;DHT22;75357;49.780;9.448;2024-02-21T15:29:55;13.10;53.40
85036;DHT22;75357;49.780;9.448;2024-02-21T15:32:24;13.10;52.90
85036;DHT22;75357;49.780;9.448;2024-02-21T15:34:53;13.10;52.30
85036;DHT22;75357;49.780;9.448;2024-02-21T15:37:21;13.10;52.20
85036;DHT22;75357;49.780;9.448;2024-02-21T15:39:51;13.00;52.60
85036;DHT22;75357;49.780;9.448;2024-02-21T15:42:19;13.00;52.00
85036;DHT22;75357;49.780;9.448;2024-02-21T15:44:48;12.80;52.90
85036;DHT22;75357;49.780;9.448;2024-02-21T15:47:16;12.60;52.90
85036;DHT22;75357;49.780;9.448;2024-02-21T15:49:49;12.60;52.70
85036;DHT22;75357;49.780;9.448;2024-02-21T15:52:17;12.60;52.90
85036;DHT22;75357;49.780;9.448;2024-02-21T15:54:46;12.60;52.70